createdAt,value
2022-12-11T00:01:23.951Z,8.40
2022-12-11T00:03:51.424Z,8.40
2022-12-11T00:06:20.972Z,8.30
2022-12-11T00:08:48.267Z,8.30
2022-12-11T00:11:16.607Z,8.30
2022-12-11T00:13:43.737Z,8.30
2022-12-11T00:16:11.342Z,8.30
2022-12-11T00:18:38.648Z,8.30
2022-12-11T00:21:08.188Z,8.30
2022-12-11T00:23:35.864Z,8.30
2022-12-11T00:26:07.213Z,8.30
2022-12-11T00:28:34.561Z,8.40
2022-12-11T00:31:06.582Z,8.40
2022-12-11T00:33:33.846Z,8.30
2022-12-11T00:36:01.179Z,8.30
2022-12-11T00:38:28.263Z,8.30
2022-12-11T00:40:59.533Z,8.30
2022-12-11T00:43:26.591Z,8.30
2022-12-11T00:45:53.673Z,8.30
2022-12-11T00:48:20.880Z,8.30
2022-12-11T00:50:47.922Z,8.30
2022-12-11T00:53:15.011Z,8.30
2022-12-11T00:55:43.543Z,8.20
2022-12-11T00:58:12.244Z,8.20
2022-12-11T01:00:40.143Z,8.20
2022-12-11T01:03:08.162Z,8.20
2022-12-11T01:05:35.523Z,8.10
2022-12-11T01:08:03.465Z,8.10
2022-12-11T01:10:30.794Z,8.10
2022-12-11T01:13:05.127Z,8.10
2022-12-11T01:15:39.916Z,8.10
2022-12-11T01:18:09.387Z,8.00
2022-12-11T01:20:39.402Z,8.00
2022-12-11T01:23:06.887Z,8.00
2022-12-11T01:25:38.277Z,8.00
2022-12-11T01:28:06.410Z,8.00
2022-12-11T01:30:34.255Z,8.00
2022-12-11T01:33:01.331Z,8.00
2022-12-11T01:35:29.070Z,8.00
2022-12-11T01:37:56.197Z,8.00
2022-12-11T01:40:23.585Z,8.00
2022-12-11T01:42:50.940Z,8.00
2022-12-11T01:45:36.623Z,8.00
2022-12-11T01:48:24.094Z,8.00
2022-12-11T01:51:03.178Z,7.90
2022-12-11T01:53:40.533Z,7.90
2022-12-11T01:56:08.880Z,7.90
2022-12-11T01:58:42.096Z,8.00
2022-12-11T02:01:12.117Z,7.90
2022-12-11T02:03:39.322Z,7.90
2022-12-11T02:06:06.522Z,7.80
2022-12-11T02:08:33.576Z,7.80
2022-12-11T02:11:16.806Z,7.80
2022-12-11T02:14:19.304Z,7.80
2022-12-11T02:17:07.158Z,7.70
2022-12-11T02:19:46.120Z,7.70
2022-12-11T02:22:37.007Z,7.70
2022-12-11T02:25:22.807Z,7.70
2022-12-11T02:28:18.386Z,7.70
2022-12-11T02:30:53.769Z,7.70
2022-12-11T02:33:34.363Z,7.80
2022-12-11T02:36:05.500Z,7.80
2022-12-11T02:38:36.830Z,7.80
2022-12-11T02:41:07.516Z,7.80
2022-12-11T02:43:36.222Z,7.90
2022-12-11T02:46:06.336Z,7.90
2022-12-11T02:48:34.879Z,7.90
2022-12-11T02:51:05.019Z,7.90
2022-12-11T02:53:35.407Z,8.00
2022-12-11T02:56:16.382Z,8.00
2022-12-11T02:58:48.082Z,8.00
2022-12-11T03:01:15.666Z,8.10
2022-12-11T03:03:42.913Z,8.00
2022-12-11T03:06:16.359Z,8.10
2022-12-11T03:08:43.366Z,8.10
2022-12-11T03:11:13.953Z,8.10
2022-12-11T03:13:42.724Z,8.10
2022-12-11T03:16:19.880Z,8.10
2022-12-11T03:19:19.085Z,8.10
2022-12-11T03:21:54.467Z,8.10
2022-12-11T03:24:33.235Z,8.10
2022-12-11T03:27:10.999Z,8.20
2022-12-11T03:29:44.906Z,8.20
2022-12-11T03:32:20.107Z,8.10
2022-12-11T03:34:58.067Z,8.20
2022-12-11T03:37:28.863Z,8.10
2022-12-11T03:40:01.535Z,8.10
2022-12-11T03:42:29.227Z,8.10
2022-12-11T03:44:58.995Z,8.10
2022-12-11T03:47:28.905Z,8.20
2022-12-11T03:49:58.293Z,8.10
2022-12-11T03:52:28.652Z,8.10
2022-12-11T03:54:59.478Z,8.10
2022-12-11T03:57:30.630Z,8.10
2022-12-11T03:59:58.330Z,8.10
2022-12-11T04:02:25.320Z,8.10
2022-12-11T04:04:52.431Z,8.20
2022-12-11T04:07:19.429Z,8.10
2022-12-11T04:09:46.452Z,8.10
2022-12-11T04:12:13.513Z,8.10
2022-12-11T04:14:59.175Z,8.10
2022-12-11T04:17:45.076Z,8.00
2022-12-11T04:20:31.246Z,8.00
2022-12-11T04:23:16.621Z,8.00
2022-12-11T04:25:43.688Z,8.00
2022-12-11T04:28:11.068Z,7.90
2022-12-11T04:30:38.117Z,7.90
2022-12-11T04:33:05.376Z,7.90
2022-12-11T04:35:32.474Z,7.90
2022-12-11T04:37:59.607Z,7.90
2022-12-11T04:40:26.694Z,7.90
2022-12-11T04:42:53.786Z,7.90
2022-12-11T04:45:20.763Z,7.90
2022-12-11T04:47:48.010Z,7.90
2022-12-11T04:50:16.210Z,7.80
2022-12-11T04:52:43.832Z,7.80
2022-12-11T04:55:12.075Z,7.80
2022-12-11T04:57:39.846Z,7.80
2022-12-11T05:00:09.378Z,7.90
2022-12-11T05:02:37.389Z,7.90
2022-12-11T05:05:06.557Z,7.90
2022-12-11T05:07:33.588Z,7.80
2022-12-11T05:10:00.656Z,7.80
2022-12-11T05:12:27.812Z,7.80
2022-12-11T05:14:55.138Z,7.80
2022-12-11T05:17:22.640Z,7.80
2022-12-11T05:19:51.277Z,7.80
2022-12-11T05:22:19.046Z,7.70
2022-12-11T05:24:46.341Z,7.70
2022-12-11T05:27:13.510Z,7.70
2022-12-11T05:29:40.650Z,7.60
2022-12-11T05:32:07.634Z,7.60
2022-12-11T05:34:34.947Z,7.60
2022-12-11T05:37:02.284Z,7.60
2022-12-11T05:39:29.416Z,7.60
2022-12-11T05:41:56.460Z,7.60
2022-12-11T05:44:23.480Z,7.50
2022-12-11T05:46:50.570Z,7.50
2022-12-11T05:49:20.077Z,7.50
2022-12-11T05:51:47.506Z,7.50
2022-12-11T05:54:14.839Z,7.40
2022-12-11T05:56:41.889Z,7.40
2022-12-11T05:59:09.208Z,7.40
2022-12-11T06:01:41.896Z,7.40
2022-12-11T06:04:11.607Z,7.40
2022-12-11T06:06:40.686Z,7.30
2022-12-11T06:09:07.962Z,7.30
2022-12-11T06:11:35.897Z,7.30
2022-12-11T06:14:04.180Z,7.20
2022-12-11T06:16:31.452Z,7.20
2022-12-11T06:18:58.923Z,7.20
2022-12-11T06:21:29.578Z,7.20
2022-12-11T06:23:58.430Z,7.10
2022-12-11T06:26:26.462Z,7.10
2022-12-11T06:28:54.165Z,7.00
2022-12-11T06:31:21.819Z,7.00
2022-12-11T06:33:48.959Z,7.00
2022-12-11T06:36:19.137Z,6.90
2022-12-11T06:38:47.841Z,6.90
2022-12-11T06:41:15.217Z,6.90
2022-12-11T06:43:43.174Z,6.90
2022-12-11T06:46:13.984Z,6.80
2022-12-11T06:48:42.441Z,6.80
2022-12-11T06:51:18.436Z,6.80
2022-12-11T06:53:45.920Z,6.80
2022-12-11T06:56:15.579Z,6.80
2022-12-11T06:58:44.215Z,6.70
2022-12-11T07:01:25.866Z,6.80
2022-12-11T07:03:54.623Z,6.80
2022-12-11T07:06:22.016Z,6.70
2022-12-11T07:08:49.102Z,6.70
2022-12-11T07:11:18.256Z,6.70
2022-12-11T07:13:45.736Z,6.60
2022-12-11T07:16:15.282Z,6.60
2022-12-11T07:18:46.802Z,6.60
2022-12-11T07:21:14.542Z,6.60
2022-12-11T07:23:42.407Z,6.60
2022-12-11T07:26:12.504Z,6.60
2022-12-11T07:28:40.112Z,6.60
2022-12-11T07:31:08.176Z,6.70
2022-12-11T07:33:35.466Z,6.70
2022-12-11T07:36:04.974Z,6.70
2022-12-11T07:38:32.433Z,6.70
2022-12-11T07:41:05.424Z,6.80
2022-12-11T07:43:33.798Z,6.80
2022-12-11T07:46:05.792Z,6.80
2022-12-11T07:48:35.143Z,6.90
2022-12-11T07:51:15.210Z,6.90
2022-12-11T07:53:45.415Z,7.00
2022-12-11T07:56:12.644Z,7.00
2022-12-11T07:58:40.168Z,7.00
2022-12-11T08:01:16.128Z,7.10
2022-12-11T08:03:43.372Z,7.10
2022-12-11T08:06:11.395Z,7.10
2022-12-11T08:08:39.479Z,7.20
2022-12-11T08:11:09.322Z,7.20
2022-12-11T08:13:36.563Z,7.20
2022-12-11T08:16:07.902Z,7.20
2022-12-11T08:18:36.666Z,7.20
2022-12-11T08:21:07.690Z,7.20
2022-12-11T08:23:35.995Z,7.20
2022-12-11T08:26:05.221Z,7.20
2022-12-11T08:28:32.736Z,7.20
2022-12-11T08:31:00.417Z,7.20
2022-12-11T08:33:27.527Z,7.10
2022-12-11T08:35:54.608Z,7.20
2022-12-11T08:38:25.417Z,7.20
2022-12-11T08:40:52.797Z,7.20
2022-12-11T08:43:19.872Z,7.20
2022-12-11T08:45:47.421Z,7.20
2022-12-11T08:48:14.508Z,7.30
2022-12-11T08:50:41.603Z,7.30
2022-12-11T08:53:08.633Z,7.30
2022-12-11T08:55:35.630Z,7.30
2022-12-11T08:58:02.575Z,7.30
2022-12-11T09:00:29.624Z,7.30
2022-12-11T09:02:56.754Z,7.40
2022-12-11T09:05:23.863Z,7.40
2022-12-11T09:07:51.029Z,7.40
2022-12-11T09:10:18.630Z,7.40
2022-12-11T09:12:45.598Z,7.40
2022-12-11T09:15:13.075Z,7.50
2022-12-11T09:17:40.375Z,7.50
2022-12-11T09:20:07.965Z,7.50
2022-12-11T09:22:35.033Z,7.50
2022-12-11T09:25:02.206Z,7.50
2022-12-11T09:27:29.493Z,7.50
2022-12-11T09:29:56.438Z,7.50
2022-12-11T09:32:23.485Z,7.50
2022-12-11T09:34:51.878Z,7.50
2022-12-11T09:37:19.087Z,7.50
2022-12-11T09:39:46.137Z,7.60
2022-12-11T09:42:28.008Z,7.50
2022-12-11T09:44:58.546Z,7.60
2022-12-11T09:47:34.104Z,7.60
2022-12-11T09:50:26.096Z,7.60
2022-12-11T09:53:13.252Z,7.60
2022-12-11T09:55:47.969Z,7.60
2022-12-11T09:58:37.146Z,7.60
2022-12-11T10:01:15.183Z,7.70
2022-12-11T10:04:19.913Z,7.70
2022-12-11T10:06:49.950Z,7.70
2022-12-11T10:09:36.839Z,7.70
2022-12-11T10:12:12.332Z,7.80
2022-12-11T10:15:00.970Z,7.80
2022-12-11T10:17:30.420Z,7.80
2022-12-11T10:20:02.068Z,7.80
2022-12-11T10:22:32.882Z,7.80
2022-12-11T10:25:23.553Z,7.80
2022-12-11T10:27:51.179Z,7.80
2022-12-11T10:30:20.019Z,7.80
2022-12-11T10:32:46.960Z,7.80
2022-12-11T10:35:52.399Z,7.90
2022-12-11T10:38:26.384Z,7.90
2022-12-11T10:40:57.531Z,8.00
2022-12-11T10:43:40.264Z,8.00
2022-12-11T10:46:15.917Z,8.00
2022-12-11T10:48:58.060Z,8.00
2022-12-11T10:51:37.604Z,8.10
2022-12-11T10:54:16.672Z,8.10
2022-12-11T10:56:48.395Z,8.10
2022-12-11T10:59:46.807Z,8.10
2022-12-11T11:02:35.913Z,8.00
2022-12-11T11:05:14.356Z,8.00
2022-12-11T11:07:41.958Z,7.90
2022-12-11T11:10:11.749Z,7.80
2022-12-11T11:12:45.069Z,7.80
2022-12-11T11:15:19.592Z,7.80
2022-12-11T11:17:56.166Z,7.80
2022-12-11T11:20:27.380Z,7.80
2022-12-11T11:23:00.705Z,7.80
2022-12-11T11:25:30.837Z,7.80
2022-12-11T11:28:03.700Z,7.80
2022-12-11T11:30:39.874Z,7.90
2022-12-11T11:33:13.697Z,7.90
2022-12-11T11:35:51.247Z,7.90
2022-12-11T11:38:21.121Z,7.90
2022-12-11T11:41:17.245Z,7.90
2022-12-11T11:43:46.617Z,7.80
2022-12-11T11:46:33.508Z,7.90
2022-12-11T11:49:15.654Z,7.90
2022-12-11T11:51:54.212Z,7.90
2022-12-11T11:54:31.971Z,7.80
2022-12-11T11:57:01.743Z,7.80
2022-12-11T11:59:34.238Z,7.80
2022-12-11T12:02:01.335Z,7.80
2022-12-11T12:04:34.380Z,7.70
2022-12-11T12:07:25.039Z,7.70
2022-12-11T12:10:10.461Z,7.60
2022-12-11T12:12:54.317Z,7.60
2022-12-11T12:15:28.960Z,7.50
2022-12-11T12:18:02.889Z,7.50
2022-12-11T12:20:48.897Z,7.50
2022-12-11T12:23:51.435Z,7.50
2022-12-11T12:26:29.225Z,7.50
2022-12-11T12:29:11.187Z,7.60
2022-12-11T12:31:41.328Z,7.60
2022-12-11T12:34:36.130Z,7.60
2022-12-11T12:37:21.973Z,7.60
2022-12-11T12:40:10.718Z,7.60
2022-12-11T12:42:46.585Z,7.60
2022-12-11T12:45:16.467Z,7.70
2022-12-11T12:47:53.071Z,7.70
2022-12-11T12:50:23.870Z,7.60
2022-12-11T12:52:53.227Z,7.60
2022-12-11T12:55:24.649Z,7.50
2022-12-11T12:58:00.808Z,7.50
2022-12-11T13:00:33.595Z,7.40
2022-12-11T13:03:22.233Z,7.40
2022-12-11T13:06:04.892Z,7.30
2022-12-11T13:08:48.663Z,7.20
2022-12-11T13:11:18.522Z,7.20
2022-12-11T13:14:01.689Z,7.10
2022-12-11T13:16:42.989Z,7.10
2022-12-11T13:19:35.389Z,7.10
2022-12-11T13:22:14.329Z,7.10
2022-12-11T13:24:50.324Z,7.00
2022-12-11T13:27:45.795Z,6.90
2022-12-11T13:30:15.872Z,6.80
2022-12-11T13:32:54.216Z,6.70
2022-12-11T13:35:21.473Z,6.70
2022-12-11T13:37:52.130Z,6.60
2022-12-11T13:40:28.757Z,6.60
2022-12-11T13:43:05.795Z,6.60
2022-12-11T13:45:45.297Z,6.50
2022-12-11T13:48:33.758Z,6.50
2022-12-11T13:51:01.627Z,6.50
2022-12-11T13:53:29.116Z,6.50
2022-12-11T13:56:04.510Z,6.50
2022-12-11T13:58:35.437Z,6.50
2022-12-11T14:01:22.750Z,6.50
2022-12-11T14:04:23.330Z,6.50
2022-12-11T14:06:50.556Z,6.50
2022-12-11T14:09:21.243Z,6.50
2022-12-11T14:11:53.511Z,6.40
2022-12-11T14:14:26.590Z,6.40
2022-12-11T14:16:53.893Z,6.40
2022-12-11T14:19:22.558Z,6.30
2022-12-11T14:22:02.173Z,6.30
2022-12-11T14:24:30.545Z,6.30
2022-12-11T14:26:58.055Z,6.30
2022-12-11T14:29:27.565Z,6.30
2022-12-11T14:31:55.152Z,6.30
2022-12-11T14:34:31.422Z,6.30
2022-12-11T14:37:00.984Z,6.30
2022-12-11T14:39:57.378Z,6.30
2022-12-11T14:42:31.346Z,6.30
2022-12-11T14:45:20.005Z,6.20
2022-12-11T14:47:47.365Z,6.30
2022-12-11T14:50:47.580Z,6.30
2022-12-11T14:53:19.566Z,6.20
2022-12-11T14:55:48.580Z,6.20
2022-12-11T14:58:22.943Z,6.20
2022-12-11T15:01:07.632Z,6.20
2022-12-11T15:03:37.899Z,6.20
2022-12-11T15:06:26.055Z,6.20
2022-12-11T15:08:53.254Z,6.20
2022-12-11T15:11:20.771Z,6.20
2022-12-11T15:13:51.213Z,6.10
2022-12-11T15:16:19.075Z,6.20
2022-12-11T15:18:50.361Z,6.10
2022-12-11T15:21:18.052Z,6.10
2022-12-11T15:23:59.954Z,6.10
2022-12-11T15:26:44.912Z,6.10
2022-12-11T15:29:27.091Z,6.10
2022-12-11T15:32:09.335Z,6.10
2022-12-11T15:34:44.856Z,6.10
2022-12-11T15:37:22.261Z,6.10
2022-12-11T15:39:49.508Z,6.10
2022-12-11T15:42:29.993Z,6.10
2022-12-11T15:44:57.640Z,6.10
2022-12-11T15:47:28.954Z,6.10
2022-12-11T15:50:16.835Z,6.10
2022-12-11T15:52:44.523Z,6.10
2022-12-11T15:55:12.225Z,6.00
2022-12-11T15:57:45.990Z,6.00
2022-12-11T16:00:17.880Z,5.90
2022-12-11T16:02:46.001Z,5.90
2022-12-11T16:05:14.074Z,5.90
2022-12-11T16:07:41.329Z,5.90
2022-12-11T16:10:13.510Z,5.80
2022-12-11T16:12:40.544Z,5.80
2022-12-11T16:15:08.101Z,5.80
2022-12-11T16:17:35.222Z,5.80
2022-12-11T16:20:02.290Z,5.80
2022-12-11T16:22:29.332Z,5.80
2022-12-11T16:24:56.379Z,5.80
2022-12-11T16:27:24.013Z,5.80
2022-12-11T16:29:51.078Z,5.80
2022-12-11T16:32:20.126Z,5.70
2022-12-11T16:34:47.152Z,5.70
2022-12-11T16:37:14.393Z,5.70
2022-12-11T16:39:42.972Z,5.80
2022-12-11T16:42:10.010Z,5.80
2022-12-11T16:44:42.423Z,5.80
2022-12-11T16:47:10.931Z,5.80
2022-12-11T16:49:38.011Z,5.80
2022-12-11T16:52:05.141Z,5.90
2022-12-11T16:54:32.244Z,5.90
2022-12-11T16:56:59.292Z,5.90
2022-12-11T16:59:26.393Z,5.90
2022-12-11T17:01:53.477Z,5.90
2022-12-11T17:04:20.500Z,5.90
2022-12-11T17:06:48.713Z,5.90
2022-12-11T17:09:15.731Z,6.00
2022-12-11T17:11:42.813Z,6.00
2022-12-11T17:14:12.581Z,6.00
2022-12-11T17:16:39.688Z,6.00
2022-12-11T17:19:07.454Z,6.00
2022-12-11T17:21:34.545Z,6.00
2022-12-11T17:24:01.662Z,6.00
2022-12-11T17:26:29.121Z,6.00
2022-12-11T17:28:57.319Z,6.00
2022-12-11T17:31:24.728Z,6.00
2022-12-11T17:33:54.021Z,6.00
2022-12-11T17:36:22.401Z,6.00
2022-12-11T17:38:50.305Z,6.10
2022-12-11T17:41:20.684Z,6.10
2022-12-11T17:43:52.844Z,6.10
2022-12-11T17:46:21.198Z,6.10
2022-12-11T17:48:48.766Z,6.00
2022-12-11T17:51:21.205Z,6.00
2022-12-11T17:53:48.293Z,5.90
2022-12-11T17:56:15.522Z,5.90
2022-12-11T17:58:42.485Z,5.80
2022-12-11T18:01:13.272Z,5.80
2022-12-11T18:03:40.928Z,5.70
2022-12-11T18:06:12.101Z,5.70
2022-12-11T18:08:39.899Z,5.70
2022-12-11T18:11:08.159Z,5.70
2022-12-11T18:13:35.301Z,5.70
2022-12-11T18:16:18.027Z,5.70
2022-12-11T18:18:46.436Z,5.70
2022-12-11T18:21:22.130Z,5.60
2022-12-11T18:23:50.434Z,5.70
2022-12-11T18:26:18.877Z,5.70
2022-12-11T18:28:47.266Z,5.70
2022-12-11T18:31:14.481Z,5.70
2022-12-11T18:33:43.443Z,5.80
2022-12-11T18:36:11.960Z,5.80
2022-12-11T18:38:39.805Z,5.80
2022-12-11T18:41:09.299Z,5.80
2022-12-11T18:43:36.867Z,5.90
2022-12-11T18:46:08.656Z,5.90
2022-12-11T18:48:36.540Z,5.90
2022-12-11T18:51:08.453Z,5.90
2022-12-11T18:53:36.848Z,6.00
2022-12-11T18:56:13.795Z,6.00
2022-12-11T18:58:42.250Z,6.00
2022-12-11T19:01:35.723Z,6.00
2022-12-11T19:04:06.696Z,6.00
2022-12-11T19:06:37.706Z,6.00
2022-12-11T19:09:06.985Z,6.00
2022-12-11T19:11:35.385Z,6.00
2022-12-11T19:14:04.441Z,6.00
2022-12-11T19:16:37.338Z,6.00
2022-12-11T19:19:07.480Z,6.00
2022-12-11T19:21:36.734Z,6.00
2022-12-11T19:24:05.677Z,6.00
2022-12-11T19:26:33.320Z,6.00
2022-12-11T19:29:00.484Z,6.00
2022-12-11T19:31:29.555Z,6.00
2022-12-11T19:33:57.283Z,6.10
2022-12-11T19:36:26.586Z,6.10
2022-12-11T19:38:59.428Z,6.00
2022-12-11T19:41:30.027Z,6.10
2022-12-11T19:43:58.689Z,6.00
2022-12-11T19:46:26.639Z,6.10
2022-12-11T19:48:55.790Z,6.10
2022-12-11T19:51:33.681Z,6.10
2022-12-11T19:54:03.056Z,6.10
2022-12-11T19:56:30.597Z,6.00
2022-12-11T19:58:58.914Z,6.00
2022-12-11T20:01:31.070Z,6.10
2022-12-11T20:04:01.125Z,6.00
2022-12-11T20:06:30.223Z,6.00
2022-12-11T20:08:57.845Z,6.10
2022-12-11T20:11:25.038Z,6.00
2022-12-11T20:13:54.422Z,6.00
2022-12-11T20:16:45.899Z,6.00
2022-12-11T20:19:09.573Z,6.00
2022-12-11T20:21:36.677Z,5.90
2022-12-11T20:24:03.833Z,5.80
2022-12-11T20:26:32.633Z,5.70
2022-12-11T20:28:59.733Z,5.60
2022-12-11T20:31:27.222Z,5.60
2022-12-11T20:33:56.795Z,5.50
2022-12-11T20:36:25.005Z,5.40
2022-12-11T20:38:52.908Z,5.30
2022-12-11T20:41:22.666Z,5.30
2022-12-11T20:43:50.105Z,5.20
2022-12-11T20:46:18.524Z,5.20
2022-12-11T20:48:46.443Z,5.10
2022-12-11T20:51:19.679Z,5.00
2022-12-11T20:53:56.573Z,5.00
2022-12-11T20:56:24.928Z,4.90
2022-12-11T20:58:51.983Z,4.80
2022-12-11T21:01:22.591Z,4.80
2022-12-11T21:03:50.418Z,4.70
2022-12-11T21:06:22.332Z,4.70
2022-12-11T21:08:49.360Z,4.70
2022-12-11T21:11:18.629Z,4.60
2022-12-11T21:13:45.768Z,4.60
2022-12-11T21:16:12.917Z,4.50
2022-12-11T21:18:40.090Z,4.50
2022-12-11T21:21:07.472Z,4.50
2022-12-11T21:23:34.472Z,4.40
2022-12-11T21:26:02.234Z,4.30
2022-12-11T21:28:35.035Z,4.30
2022-12-11T21:31:06.612Z,4.20
2022-12-11T21:33:34.251Z,4.20
2022-12-11T21:36:02.353Z,4.20
2022-12-11T21:38:29.970Z,4.10
2022-12-11T21:40:57.930Z,4.10
2022-12-11T21:43:25.031Z,4.10
2022-12-11T21:46:01.511Z,4.10
2022-12-11T21:48:29.478Z,4.00
2022-12-11T21:51:04.130Z,4.00
2022-12-11T21:53:31.209Z,4.00
2022-12-11T21:55:58.312Z,4.00
2022-12-11T21:58:25.333Z,4.00
2022-12-11T22:00:52.380Z,3.90
2022-12-11T22:03:19.465Z,3.90
2022-12-11T22:05:46.444Z,3.90
2022-12-11T22:08:13.542Z,3.80
2022-12-11T22:10:40.526Z,3.80
2022-12-11T22:13:07.662Z,3.80
2022-12-11T22:15:34.753Z,3.70
2022-12-11T22:18:01.891Z,3.70
2022-12-11T22:20:29.044Z,3.70
2022-12-11T22:22:57.620Z,3.70
2022-12-11T22:25:24.806Z,3.70
2022-12-11T22:27:51.786Z,3.70
2022-12-11T22:30:18.964Z,3.70
2022-12-11T22:32:45.985Z,3.60
2022-12-11T22:35:13.250Z,3.60
2022-12-11T22:37:40.489Z,3.60
2022-12-11T22:40:08.385Z,3.60
2022-12-11T22:42:35.410Z,3.50
2022-12-11T22:45:02.564Z,3.50
2022-12-11T22:47:29.615Z,3.50
2022-12-11T22:49:56.655Z,3.50
2022-12-11T22:52:23.816Z,3.50
2022-12-11T22:54:50.970Z,3.50
2022-12-11T22:57:18.027Z,3.50
2022-12-11T22:59:45.030Z,3.50
2022-12-11T23:02:12.255Z,3.50
2022-12-11T23:04:39.507Z,3.40
2022-12-11T23:07:06.798Z,3.40
2022-12-11T23:09:34.307Z,3.40
2022-12-11T23:12:01.772Z,3.40
2022-12-11T23:14:28.818Z,3.40
2022-12-11T23:16:55.909Z,3.40
2022-12-11T23:19:25.644Z,3.40
2022-12-11T23:21:53.705Z,3.40
2022-12-11T23:24:20.805Z,3.30
2022-12-11T23:26:48.258Z,3.30
2022-12-11T23:29:15.357Z,3.30
2022-12-11T23:31:42.391Z,3.30
2022-12-11T23:34:09.585Z,3.30
2022-12-11T23:36:36.834Z,3.30
2022-12-11T23:39:04.221Z,3.30
2022-12-11T23:41:31.282Z,3.30
2022-12-11T23:43:59.349Z,3.30
2022-12-11T23:46:26.618Z,3.30
2022-12-11T23:48:53.987Z,3.20
2022-12-11T23:51:23.405Z,3.20
2022-12-11T23:53:50.969Z,3.20
2022-12-11T23:56:25.504Z,3.10
2022-12-11T23:58:53.384Z,3.10
